Time,TemperatureF,DewpointF,PressureIn,WindDirection,WindDirectionDegrees,WindSpeedMPH,WindSpeedGustMPH,Humidity,HourlyPrecipIn,Conditions,Clouds,dailyrainin,SoftwareType,DateUTC
2013-05-26 00:14:00,56.1,40.0,30.18,South,174,0.0,4.0,55,0.00,,,0.00,weatherlink.com 1.10,2013-05-26 04:14:00,
2013-05-26 00:29:00,55.8,40.0,30.18,South,174,0.0,4.0,55,0.00,,,0.00,weatherlink.com 1.10,2013-05-26 04:29:00,
2013-05-26 00:44:00,56.2,40.0,30.18,South,175,0.0,3.0,54,0.00,,,0.00,weatherlink.com 1.10,2013-05-26 04:44:00,
2013-05-26 01:00:00,56.5,39.0,30.18,South,174,1.0,4.0,53,0.00,,,0.00,weatherlink.com 1.10,2013-05-26 05:00:00,
2013-05-26 01:15:00,56.7,39.0,30.18,South,174,0.0,6.0,52,0.00,,,0.00,weatherlink.com 1.10,2013-05-26 05:15:00,
2013-05-26 01:30:00,56.9,39.0,30.18,South,172,2.0,7.0,52,0.00,,,0.00,weatherlink.com 1.10,2013-05-26 05:30:00,
2013-05-26 01:45:00,56.8,40.0,30.18,South,176,2.0,6.0,53,0.00,,,0.00,weatherlink.com 1.10,2013-05-26 05:45:00,
2013-05-26 02:00:00,56.8,40.0,30.18,South,172,2.0,6.0,53,0.00,,,0.00,weatherlink.com 1.10,2013-05-26 06:00:00,
2013-05-26 02:15:00,56.8,40.0,30.18,South,174,1.0,4.0,53,0.00,,,0.00,weatherlink.com 1.10,2013-05-26 06:15:00,
2013-05-26 02:30:00,56.6,39.0,30.17,South,174,1.0,4.0,52,0.00,,,0.00,weatherlink.com 1.10,2013-05-26 06:30:00,
2013-05-26 02:45:00,56.5,38.0,30.17,South,176,0.0,3.0,51,0.00,,,0.00,weatherlink.com 1.10,2013-05-26 06:45:00,
2013-05-26 03:00:00,56.6,39.0,30.17,South,174,1.0,5.0,52,0.00,,,0.00,weatherlink.com 1.10,2013-05-26 07:00:00,
2013-05-26 03:15:00,56.1,39.0,30.17,South,175,0.0,4.0,53,0.00,,,0.00,weatherlink.com 1.10,2013-05-26 07:15:00,
2013-05-26 03:30:00,56.5,39.0,30.17,South,175,0.0,5.0,52,0.00,,,0.00,weatherlink.com 1.10,2013-05-26 07:30:00,
2013-05-26 03:45:00,56.5,40.0,30.16,South,174,1.0,4.0,55,0.00,,,0.00,weatherlink.com 1.10,2013-05-26 07:45:00,
2013-05-26 04:00:00,55.9,40.0,30.16,South,174,0.0,1.0,56,0.00,,,0.00,weatherlink.com 1.10,2013-05-26 08:00:00,
2013-05-26 04:15:00,56.5,39.0,30.16,South,174,0.0,4.0,52,0.00,,,0.00,weatherlink.com 1.10,2013-05-26 08:15:00,
2013-05-26 04:30:00,56.9,40.0,30.17,South,175,0.0,4.0,53,0.00,,,0.00,weatherlink.com 1.10,2013-05-26 08:30:00,
2013-05-26 04:45:00,56.7,39.0,30.17,South,174,1.0,5.0,52,0.00,,,0.00,weatherlink.com 1.10,2013-05-26 08:45:00,
2013-05-26 05:00:00,56.5,39.0,30.18,South,172,1.0,6.0,53,0.00,,,0.00,weatherlink.com 1.10,2013-05-26 09:00:00,
2013-05-26 05:15:00,56.5,38.0,30.18,South,172,1.0,5.0,50,0.00,,,0.00,weatherlink.com 1.10,2013-05-26 09:15:00,
2013-05-26 05:30:00,56.5,38.0,30.19,South,172,3.0,6.0,50,0.00,,,0.00,weatherlink.com 1.10,2013-05-26 09:30:00,
2013-05-26 05:45:00,56.5,38.0,30.19,South,172,0.0,4.0,50,0.00,,,0.00,weatherlink.com 1.10,2013-05-26 09:45:00,
2013-05-26 06:01:00,56.4,38.0,30.19,South,172,0.0,2.0,51,0.00,,,0.00,weatherlink.com 1.10,2013-05-26 10:01:00,
2013-05-26 06:15:00,54.8,40.0,30.20,South,172,0.0,1.0,57,0.00,,,0.00,weatherlink.com 1.10,2013-05-26 10:15:00,
2013-05-26 06:30:00,52.5,41.0,30.20,South,172,0.0,1.0,65,0.00,,,0.00,weatherlink.com 1.10,2013-05-26 10:30:00,
2013-05-26 06:45:00,51.5,41.0,30.22,South,172,0.0,0.0,67,0.00,,,0.00,weatherlink.com 1.10,2013-05-26 10:45:00,
2013-05-26 07:00:00,51.8,40.0,30.22,South,172,0.0,0.0,65,0.00,,,0.00,weatherlink.com 1.10,2013-05-26 11:00:00,
2013-05-26 07:15:00,52.6,40.0,30.23,South,172,0.0,0.0,63,0.00,,,0.00,weatherlink.com 1.10,2013-05-26 11:15:00,
2013-05-26 07:30:00,53.4,41.0,30.23,South,172,0.0,0.0,64,0.00,,,0.00,weatherlink.com 1.10,2013-05-26 11:30:00,
2013-05-26 07:45:00,53.7,42.0,30.23,South,172,0.0,0.0,64,0.00,,,0.00,weatherlink.com 1.10,2013-05-26 11:45:00,
2013-05-26 08:00:00,53.8,42.0,30.22,South,172,0.0,0.0,65,0.00,,,0.00,weatherlink.com 1.10,2013-05-26 12:00:00,
2013-05-26 08:15:00,53.8,45.0,30.23,South,172,0.0,0.0,71,0.00,,,0.00,weatherlink.com 1.10,2013-05-26 12:15:00,
2013-05-26 08:30:00,54.3,43.0,30.23,South,172,0.0,4.0,66,0.00,,,0.00,weatherlink.com 1.10,2013-05-26 12:30:00,
2013-05-26 08:45:00,54.1,42.0,30.23,South,173,1.0,6.0,65,0.00,,,0.00,weatherlink.com 1.10,2013-05-26 12:45:00,
2013-05-26 09:00:00,53.5,40.0,30.23,South,173,3.0,8.0,61,0.00,,,0.00,weatherlink.com 1.10,2013-05-26 13:00:00,
2013-05-26 09:15:00,52.0,41.0,30.24,South,174,1.0,8.0,66,0.01,,,0.01,weatherlink.com 1.10,2013-05-26 13:15:00,
2013-05-26 09:30:00,51.7,41.0,30.23,SSE,168,1.0,8.0,67,0.01,,,0.01,weatherlink.com 1.10,2013-05-26 13:30:00,
2013-05-26 09:45:00,52.9,40.0,30.23,South,170,0.0,8.0,62,0.01,,,0.01,weatherlink.com 1.10,2013-05-26 13:45:00,
2013-05-26 10:00:00,54.3,40.0,30.24,South,172,1.0,5.0,60,0.01,,,0.01,weatherlink.com 1.10,2013-05-26 14:00:00,
2013-05-26 10:15:00,55.2,42.0,30.24,South,172,2.0,4.0,61,0.00,,,0.01,weatherlink.com 1.10,2013-05-26 14:15:00,
2013-05-26 10:30:00,56.4,42.0,30.24,South,176,1.0,5.0,58,0.00,,,0.01,weatherlink.com 1.10,2013-05-26 14:30:00,
2013-05-26 10:45:00,57.4,43.0,30.23,South,172,0.0,7.0,59,0.00,,,0.01,weatherlink.com 1.10,2013-05-26 14:45:00,
2013-05-26 11:00:00,58.4,45.0,30.24,South,172,5.0,5.0,61,0.00,,,0.01,weatherlink.com 1.10,2013-05-26 15:00:00,
2013-05-26 11:16:00,60.2,43.0,30.24,South,172,0.0,6.0,53,0.00,,,0.01,weatherlink.com 1.10,2013-05-26 15:16:00,
2013-05-26 11:31:00,61.8,45.0,30.24,South,173,3.0,9.0,55,0.00,,,0.01,weatherlink.com 1.10,2013-05-26 15:31:00,
2013-05-26 11:46:00,63.1,42.0,30.24,South,176,0.0,6.0,47,0.00,,,0.01,weatherlink.com 1.10,2013-05-26 15:46:00,
2013-05-26 12:01:00,64.2,42.0,30.24,South,173,4.0,7.0,44,0.00,,,0.01,weatherlink.com 1.10,2013-05-26 16:01:00,
2013-05-26 12:16:00,64.3,43.0,30.24,South,173,2.0,9.0,46,0.00,,,0.01,weatherlink.com 1.10,2013-05-26 16:16:00,
2013-05-26 12:31:00,65.8,44.0,30.23,South,176,2.0,6.0,46,0.00,,,0.01,weatherlink.com 1.10,2013-05-26 16:31:00,
2013-05-26 12:46:00,66.4,44.0,30.23,South,174,3.0,6.0,44,0.00,,,0.01,weatherlink.com 1.10,2013-05-26 16:46:00,
2013-05-26 13:01:00,66.6,44.0,30.22,South,173,2.0,7.0,45,0.00,,,0.01,weatherlink.com 1.10,2013-05-26 17:01:00,
2013-05-26 13:16:00,66.6,43.0,30.22,South,174,2.0,8.0,43,0.00,,,0.01,weatherlink.com 1.10,2013-05-26 17:16:00,
2013-05-26 13:31:00,67.2,44.0,30.21,South,174,1.0,6.0,44,0.00,,,0.01,weatherlink.com 1.10,2013-05-26 17:31:00,
2013-05-26 13:46:00,67.3,43.0,30.21,South,173,2.0,9.0,42,0.00,,,0.01,weatherlink.com 1.10,2013-05-26 17:46:00,
2013-05-26 14:01:00,67.7,45.0,30.21,South,173,3.0,10.0,44,0.00,,,0.01,weatherlink.com 1.10,2013-05-26 18:01:00,
2013-05-26 14:16:00,68.2,43.0,30.20,South,176,1.0,8.0,41,0.00,,,0.01,weatherlink.com 1.10,2013-05-26 18:16:00,
2013-05-26 14:31:00,69.5,45.0,30.19,South,176,2.0,10.0,42,0.00,,,0.01,weatherlink.com 1.10,2013-05-26 18:31:00,
2013-05-26 14:46:00,68.6,44.0,30.19,South,173,1.0,10.0,41,0.00,,,0.01,weatherlink.com 1.10,2013-05-26 18:46:00,
2013-05-26 15:01:00,69.1,45.0,30.19,South,173,0.0,10.0,42,0.00,,,0.01,weatherlink.com 1.10,2013-05-26 19:01:00,
2013-05-26 15:16:00,70.1,46.0,30.19,South,179,1.0,11.0,42,0.00,,,0.01,weatherlink.com 1.10,2013-05-26 19:16:00,
2013-05-26 15:31:00,69.7,45.0,30.18,South,173,1.0,8.0,41,0.00,,,0.01,weatherlink.com 1.10,2013-05-26 19:31:00,
2013-05-26 15:46:00,69.7,47.0,30.18,South,172,3.0,9.0,44,0.00,,,0.01,weatherlink.com 1.10,2013-05-26 19:46:00,
2013-05-26 16:01:00,68.6,47.0,30.18,South,173,2.0,9.0,46,0.00,,,0.01,weatherlink.com 1.10,2013-05-26 20:01:00,
2013-05-26 16:16:00,68.7,48.0,30.18,South,173,5.0,9.0,48,0.00,,,0.01,weatherlink.com 1.10,2013-05-26 20:16:00,
2013-05-26 16:31:00,69.6,48.0,30.18,South,173,3.0,10.0,46,0.00,,,0.01,weatherlink.com 1.10,2013-05-26 20:31:00,
2013-05-26 16:46:00,69.9,49.0,30.18,South,172,1.0,12.0,47,0.00,,,0.01,weatherlink.com 1.10,2013-05-26 20:46:00,
2013-05-26 17:01:00,70.0,48.0,30.18,South,172,2.0,8.0,45,0.00,,,0.01,weatherlink.com 1.10,2013-05-26 21:01:00,
2013-05-26 17:16:00,69.6,49.0,30.18,South,174,0.0,6.0,48,0.00,,,0.01,weatherlink.com 1.10,2013-05-26 21:16:00,
2013-05-26 17:31:00,69.0,48.0,30.18,South,174,1.0,11.0,48,0.00,,,0.01,weatherlink.com 1.10,2013-05-26 21:31:00,
2013-05-26 17:46:00,69.4,50.0,30.18,South,173,0.0,7.0,50,0.00,,,0.01,weatherlink.com 1.10,2013-05-26 21:46:00,
2013-05-26 18:01:00,69.2,48.0,30.18,South,173,1.0,10.0,47,0.00,,,0.01,weatherlink.com 1.10,2013-05-26 22:01:00,
2013-05-26 18:16:00,68.7,49.0,30.18,South,173,0.0,6.0,50,0.00,,,0.01,weatherlink.com 1.10,2013-05-26 22:16:00,
2013-05-26 18:31:00,68.1,49.0,30.18,South,173,0.0,5.0,50,0.00,,,0.01,weatherlink.com 1.10,2013-05-26 22:31:00,
2013-05-26 18:46:00,66.6,48.0,30.17,South,173,1.0,5.0,52,0.00,,,0.01,weatherlink.com 1.10,2013-05-26 22:46:00,
2013-05-26 19:01:00,65.6,48.0,30.18,South,174,0.0,6.0,54,0.00,,,0.01,weatherlink.com 1.10,2013-05-26 23:01:00,
2013-05-26 19:16:00,65.0,49.0,30.18,South,175,0.0,5.0,56,0.00,,,0.01,weatherlink.com 1.10,2013-05-26 23:16:00,
2013-05-26 19:31:00,64.1,48.0,30.18,South,174,0.0,5.0,56,0.00,,,0.01,weatherlink.com 1.10,2013-05-26 23:31:00,
2013-05-26 19:46:00,63.3,48.0,30.18,South,174,0.0,3.0,58,0.00,,,0.01,weatherlink.com 1.10,2013-05-26 23:46:00,
2013-05-26 20:01:00,62.5,49.0,30.19,South,175,0.0,4.0,61,0.00,,,0.01,weatherlink.com 1.10,2013-05-27 00:01:00,
2013-05-26 20:16:00,61.8,48.0,30.19,South,175,0.0,3.0,62,0.00,,,0.01,weatherlink.com 1.10,2013-05-27 00:16:00,
2013-05-26 20:31:00,60.5,50.0,30.19,South,175,0.0,0.0,68,0.00,,,0.01,weatherlink.com 1.10,2013-05-27 00:31:00,
2013-05-26 20:46:00,59.2,51.0,30.19,South,174,0.0,0.0,73,0.00,,,0.01,weatherlink.com 1.10,2013-05-27 00:46:00,
2013-05-26 21:01:00,58.3,50.0,30.19,South,173,0.0,0.0,73,0.00,,,0.01,weatherlink.com 1.10,2013-05-27 01:01:00,
2013-05-26 21:16:00,58.1,50.0,30.20,South,174,0.0,0.0,74,0.00,,,0.01,weatherlink.com 1.10,2013-05-27 01:16:00,
2013-05-26 21:31:00,58.0,50.0,30.20,South,174,0.0,0.0,75,0.00,,,0.01,weatherlink.com 1.10,2013-05-27 01:31:00,
2013-05-26 21:46:00,58.1,50.0,30.20,South,174,0.0,2.0,74,0.00,,,0.01,weatherlink.com 1.10,2013-05-27 01:46:00,
2013-05-26 22:01:00,57.9,50.0,30.20,South,174,0.0,1.0,75,0.00,,,0.01,weatherlink.com 1.10,2013-05-27 02:01:00,
2013-05-26 22:16:00,57.2,50.0,30.21,South,174,0.0,0.0,76,0.00,,,0.01,weatherlink.com 1.10,2013-05-27 02:16:00,
2013-05-26 22:31:00,57.0,49.0,30.21,South,174,0.0,0.0,75,0.00,,,0.01,weatherlink.com 1.10,2013-05-27 02:31:00,
2013-05-26 22:46:00,57.1,49.0,30.21,South,174,0.0,0.0,74,0.00,,,0.01,weatherlink.com 1.10,2013-05-27 02:46:00,
2013-05-26 23:01:00,57.2,49.0,30.21,South,174,0.0,0.0,74,0.00,,,0.01,weatherlink.com 1.10,2013-05-27 03:01:00,
2013-05-26 23:16:00,57.5,48.0,30.21,South,174,0.0,0.0,71,0.00,,,0.01,weatherlink.com 1.10,2013-05-27 03:16:00,
2013-05-26 23:31:00,57.8,48.0,30.21,South,173,0.0,0.0,71,0.00,,,0.01,weatherlink.com 1.10,2013-05-27 03:31:00,
2013-05-26 23:46:00,57.4,47.0,30.21,South,174,0.0,0.0,69,0.00,,,0.01,weatherlink.com 1.10,2013-05-27 03:46:00,